Terminal Aerodrome Forecast
Issued by NWS

Home | Current Version | Previous Version | Text Only | Print | Product List | Glossary On
Versions: 1 2 3 4 5 6 7 8 9 10 11 12 13 14 15 16 17 18 19 20 21 22 23
000
FTUS46 KOTX 012326
TAFMWH
TAF
KMWH 012326Z 0200/0224 22006KT P6SM FEW100 BKN150
     FM020600 01004KT P6SM FEW120 BKN200
     FM021900 19008KT P6SM SCT100 BKN150=

USA.gov is the U.S. government's official web portal to all federal, state and local government web resources and services.